Time;durP1;ratioP1;P1;durP2;ratioP2;P2;SDS_P1;SDS_P2;PMS_P1;PMS_P2;Temp;Humidity;BMP_temperature;BMP_pressure;BME280_temperature;BME280_humidity;BME280_pressure;Samples;Min_cycle;Max_cycle;Signal;HPM_P1;HPM_P2
2024/02/20 00:00:44;;;;;;;4.70;2.70;;;9.40;99.90;;;;;;5067081;28;20469;-78
2024/02/20 00:03:10;;;;;;;3.20;2.45;;;9.20;99.90;;;;;;5051578;28;20403;-79
2024/02/20 00:05:35;;;;;;;6.28;2.78;;;9.00;99.90;;;;;;5042800;28;20400;-79
2024/02/20 00:08:05;;;;;;;2.90;2.37;;;9.00;99.90;;;;;;5055940;28;20393;-78
2024/02/20 00:10:31;;;;;;;3.00;2.10;;;9.10;99.90;;;;;;5057687;28;20460;-79
2024/02/20 00:13:00;;;;;;;2.90;2.20;;;9.60;99.90;;;;;;5070040;28;20934;-79
2024/02/20 00:15:25;;;;;;;2.80;2.50;;;9.00;99.90;;;;;;5062263;28;20387;-79
2024/02/20 00:17:51;;;;;;;2.80;2.00;;;8.70;99.90;;;;;;5062415;28;20374;-78
2024/02/20 00:20:17;;;;;;;2.50;2.05;;;9.20;99.90;;;;;;5059870;28;20393;-79
2024/02/20 00:22:42;;;;;;;3.37;2.60;;;8.40;99.90;;;;;;5032265;28;20414;-79
2024/02/20 00:25:08;;;;;;;2.83;2.10;;;8.90;99.90;;;;;;5059345;28;20404;-79
2024/02/20 00:27:35;;;;;;;2.90;2.38;;;9.20;99.90;;;;;;5043725;28;20390;-80
2024/02/20 00:30:00;;;;;;;3.70;2.22;;;9.20;99.90;;;;;;5059285;28;20385;-78
2024/02/20 00:32:26;;;;;;;3.45;2.40;;;8.50;99.90;;;;;;5074852;28;20458;-78
2024/02/20 00:34:51;;;;;;;3.23;2.00;;;9.20;99.90;;;;;;5060275;28;20464;-79
2024/02/20 00:37:17;;;;;;;4.30;2.00;;;9.00;99.90;;;;;;5075765;28;20386;-78
2024/02/20 00:39:42;;;;;;;2.83;2.10;;;8.90;99.90;;;;;;5043001;28;20754;-80
2024/02/20 00:42:08;;;;;;;3.55;2.05;;;9.20;99.90;;;;;;5056173;28;20912;-79
2024/02/20 00:44:34;;;;;;;3.70;2.30;;;8.80;99.90;;;;;;5042275;28;20460;-79
2024/02/20 00:47:00;;;;;;;3.55;2.30;;;9.20;99.90;;;;;;5074227;28;20726;-79
2024/02/20 00:49:25;;;;;;;2.95;2.65;;;9.20;99.90;;;;;;5061255;28;20464;-79
2024/02/20 00:51:51;;;;;;;4.97;2.50;;;9.00;99.90;;;;;;5060611;28;20381;-79
2024/02/20 00:54:17;;;;;;;2.70;2.50;;;9.20;99.90;;;;;;5061013;28;20413;-80
2024/02/20 00:56:44;;;;;;;3.07;2.60;;;9.20;99.90;;;;;;5043314;28;20391;-79
2024/02/20 00:59:11;;;;;;;3.73;2.20;;;9.20;99.90;;;;;;5062472;28;20492;-81
2024/02/20 01:01:37;;;;;;;3.60;2.40;;;9.10;99.90;;;;;;5085689;28;20392;-79
2024/02/20 01:04:04;;;;;;;3.92;2.50;;;9.00;99.90;;;;;;5080196;28;20379;-80
2024/02/20 01:06:29;;;;;;;2.80;2.30;;;9.10;99.90;;;;;;5047453;28;20419;-79
2024/02/20 01:08:55;;;;;;;2.90;2.30;;;9.20;99.90;;;;;;5059473;28;20386;-79
2024/02/20 01:11:20;;;;;;;3.00;2.50;;;9.10;99.90;;;;;;5041794;28;20385;-79
2024/02/20 01:13:46;;;;;;;3.90;3.00;;;9.20;99.90;;;;;;5058782;28;20470;-79
2024/02/20 01:16:11;;;;;;;3.17;2.00;;;9.20;99.90;;;;;;5042176;28;20401;-79
2024/02/20 01:18:41;;;;;;;3.07;2.30;;;9.20;99.90;;;;;;5061967;28;20384;-79
2024/02/20 01:21:07;;;;;;;3.88;2.10;;;9.10;99.90;;;;;;5061529;28;20795;-79
2024/02/20 01:23:32;;;;;;;4.17;2.77;;;8.90;99.90;;;;;;5059637;28;20388;-79
2024/02/20 01:25:58;;;;;;;2.77;2.27;;;9.00;99.90;;;;;;5050756;28;20412;-79
2024/02/20 01:28:23;;;;;;;4.20;2.80;;;9.20;99.90;;;;;;5057360;28;20428;-78
2024/02/20 01:30:49;;;;;;;3.70;2.30;;;9.20;99.90;;;;;;5039599;28;20395;-79
2024/02/20 01:33:14;;;;;;;3.10;2.63;;;9.10;99.90;;;;;;5055287;28;20401;-79
2024/02/20 01:35:41;;;;;;;3.20;2.60;;;8.80;99.90;;;;;;5038481;28;20417;-78
2024/02/20 01:38:07;;;;;;;3.40;2.10;;;9.40;99.90;;;;;;5038738;28;20392;-79
2024/02/20 01:40:33;;;;;;;2.10;1.60;;;8.90;99.90;;;;;;5058744;28;20382;-79
2024/02/20 01:42:59;;;;;;;3.15;1.92;;;8.70;99.90;;;;;;5060588;28;20807;-79
2024/02/20 01:45:27;;;;;;;2.58;2.20;;;8.40;99.90;;;;;;5072153;28;20440;-78
2024/02/20 01:47:54;;;;;;;3.08;2.30;;;8.70;99.90;;;;;;5027580;28;20419;-79
2024/02/20 01:50:20;;;;;;;3.03;2.45;;;8.70;99.90;;;;;;5039971;28;20393;-79
2024/02/20 01:52:46;;;;;;;4.72;3.00;;;8.70;99.90;;;;;;5040271;28;20404;-79
2024/02/20 01:55:12;;;;;;;4.20;2.70;;;8.60;99.90;;;;;;5042409;28;20382;-78
2024/02/20 01:57:39;;;;;;;3.90;2.80;;;8.50;99.90;;;;;;5042648;28;20442;-79
2024/02/20 02:00:06;;;;;;;4.10;2.60;;;8.30;99.90;;;;;;5023721;28;20474;-79
2024/02/20 02:02:32;;;;;;;4.80;3.00;;;8.30;99.90;;;;;;5042513;28;20439;-80
2024/02/20 02:04:57;;;;;;;3.30;3.00;;;8.30;99.90;;;;;;5029450;28;20397;-79
2024/02/20 02:07:23;;;;;;;3.43;2.90;;;8.40;99.90;;;;;;5076149;28;20415;-78
2024/02/20 02:09:49;;;;;;;3.60;3.03;;;8.20;99.90;;;;;;5031079;28;20403;-79
2024/02/20 02:12:14;;;;;;;5.47;3.90;;;8.40;99.90;;;;;;5040675;28;20390;-79
2024/02/20 02:14:45;;;;;;;4.80;2.95;;;8.40;99.90;;;;;;5022474;28;20395;-79
2024/02/20 02:17:11;;;;;;;4.65;3.70;;;8.30;99.90;;;;;;5032759;28;20475;-78
2024/02/20 02:19:37;;;;;;;5.67;2.93;;;8.40;99.90;;;;;;5046073;28;20472;-78
2024/02/20 02:22:04;;;;;;;5.30;3.20;;;8.20;99.90;;;;;;5052495;28;20386;-79
2024/02/20 02:24:30;;;;;;;4.65;2.50;;;8.40;99.90;;;;;;5038818;28;20396;-78
2024/02/20 02:26:55;;;;;;;3.40;3.03;;;8.40;99.90;;;;;;5052659;28;20426;-78
2024/02/20 02:29:21;;;;;;;3.78;2.95;;;8.40;99.90;;;;;;5064436;28;20383;-80
2024/02/20 02:31:46;;;;;;;3.37;2.90;;;8.00;99.90;;;;;;5060417;28;20461;-80
2024/02/20 02:34:12;;;;;;;4.30;2.80;;;8.40;99.90;;;;;;5059354;28;20400;-80
2024/02/20 02:36:38;;;;;;;3.07;2.60;;;8.40;99.90;;;;;;5061554;28;20611;-81
2024/02/20 02:39:04;;;;;;;3.00;2.70;;;8.10;99.90;;;;;;5042545;28;20416;-80
2024/02/20 02:41:30;;;;;;;3.60;2.40;;;8.40;99.90;;;;;;5059166;28;20381;-81
2024/02/20 02:43:56;;;;;;;2.80;2.47;;;8.40;99.90;;;;;;5059482;28;20396;-81
2024/02/20 02:46:21;;;;;;;2.33;2.05;;;8.20;99.90;;;;;;5057961;28;20382;-80
2024/02/20 02:48:49;;;;;;;2.90;2.60;;;8.40;99.90;;;;;;5070603;28;20752;-81
2024/02/20 02:51:15;;;;;;;2.30;2.10;;;8.50;99.90;;;;;;5044866;28;20400;-81
2024/02/20 02:53:42;;;;;;;4.15;2.28;;;9.10;99.90;;;;;;5071728;28;21435;-80
2024/02/20 02:56:10;;;;;;;4.60;2.40;;;8.20;99.90;;;;;;5084567;28;20394;-80
2024/02/20 02:58:36;;;;;;;2.70;1.67;;;8.40;99.90;;;;;;5084035;28;20383;-81
2024/02/20 03:01:01;;;;;;;3.67;2.10;;;8.10;99.90;;;;;;5083295;28;20425;-81
2024/02/20 03:03:27;;;;;;;3.83;1.97;;;8.40;99.90;;;;;;5051646;28;20477;-81
2024/02/20 03:05:53;;;;;;;3.93;2.50;;;8.40;99.90;;;;;;5061179;28;20466;-81
2024/02/20 03:08:18;;;;;;;2.80;1.80;;;8.20;99.90;;;;;;5070215;28;20391;-81
2024/02/20 03:10:44;;;;;;;2.95;2.50;;;8.30;99.90;;;;;;5061516;28;20391;-81
2024/02/20 03:13:09;;;;;;;3.30;2.28;;;8.40;99.90;;;;;;5079508;28;20395;-81
2024/02/20 03:15:35;;;;;;;2.80;2.07;;;8.40;99.90;;;;;;5079041;28;20394;-81
2024/02/20 03:18:00;;;;;;;3.40;2.10;;;8.40;99.90;;;;;;5072932;28;20459;-80
2024/02/20 03:20:26;;;;;;;2.20;2.00;;;8.30;99.90;;;;;;5067045;28;20388;-81
2024/02/20 03:22:53;;;;;;;2.90;2.00;;;;;;;;;;5069242;28;20421;-80
2024/02/20 03:25:19;;;;;;;4.72;2.63;;;8.30;99.90;;;;;;5063305;28;20392;-81
2024/02/20 03:27:44;;;;;;;3.60;2.30;;;8.40;99.90;;;;;;5057091;28;20386;-80
2024/02/20 03:30:10;;;;;;;4.47;2.60;;;8.20;99.90;;;;;;5056329;28;20397;-80
2024/02/20 03:32:36;;;;;;;3.83;2.90;;;8.20;99.90;;;;;;5056029;28;20432;-80
2024/02/20 03:35:02;;;;;;;5.40;3.47;;;8.30;99.90;;;;;;5039087;28;20381;-79
2024/02/20 03:37:28;;;;;;;4.35;2.53;;;8.30;99.90;;;;;;5058841;28;20381;-80
2024/02/20 03:39:53;;;;;;;3.55;2.55;;;8.40;99.90;;;;;;5056104;28;20396;-80
2024/02/20 03:42:19;;;;;;;5.25;3.00;;;8.40;99.90;;;;;;5058329;28;20917;-80
2024/02/20 03:44:45;;;;;;;5.07;2.97;;;7.90;99.90;;;;;;5074880;28;20395;-80
2024/02/20 03:47:10;;;;;;;3.50;2.50;;;8.30;99.90;;;;;;5074944;28;20392;-80
2024/02/20 03:49:36;;;;;;;5.40;2.70;;;8.10;99.90;;;;;;5074632;28;20395;-79
2024/02/20 03:52:01;;;;;;;4.77;3.07;;;8.10;99.90;;;;;;5053326;28;20776;-81
2024/02/20 03:54:27;;;;;;;4.93;2.80;;;8.30;99.90;;;;;;5036660;28;20388;-80
2024/02/20 03:56:53;;;;;;;2.58;2.30;;;8.00;99.90;;;;;;5038005;28;20469;-80
2024/02/20 03:59:18;;;;;;;4.17;2.37;;;8.00;99.90;;;;;;5039344;28;20389;-80
2024/02/20 04:01:44;;;;;;;3.75;2.70;;;8.30;99.90;;;;;;5039009;28;20424;-80
2024/02/20 04:04:10;;;;;;;2.85;2.20;;;8.10;99.90;;;;;;5038561;28;20838;-79
2024/02/20 04:06:35;;;;;;;3.72;2.50;;;8.30;99.90;;;;;;5076645;28;20429;-79
2024/02/20 04:09:04;;;;;;;3.53;2.58;;;7.90;99.90;;;;;;5058946;28;20419;-79
2024/02/20 04:11:30;;;;;;;3.75;2.80;;;8.60;99.90;;;;;;5058042;28;20388;-79
2024/02/20 04:13:56;;;;;;;3.47;2.90;;;8.30;99.90;;;;;;5031173;28;20406;-80
2024/02/20 04:16:21;;;;;;;4.40;2.80;;;8.30;99.90;;;;;;5039277;28;20385;-80
2024/02/20 04:18:47;;;;;;;2.63;2.30;;;8.40;99.90;;;;;;5057586;28;20385;-79
2024/02/20 04:21:12;;;;;;;4.10;2.40;;;8.40;99.90;;;;;;5057443;28;20411;-78
2024/02/20 04:23:38;;;;;;;4.80;2.40;;;8.30;99.90;;;;;;5056621;28;20395;-79
2024/02/20 04:26:03;;;;;;;6.10;3.10;;;8.10;99.90;;;;;;5048392;28;21173;-79
2024/02/20 04:28:34;;;;;;;3.15;2.08;;;8.30;99.90;;;;;;5038603;28;20401;-79
2024/02/20 04:31:01;;;;;;;3.88;2.17;;;7.90;99.90;;;;;;5047753;28;20926;-79
2024/02/20 04:33:26;;;;;;;5.30;3.00;;;8.20;99.90;;;;;;5059138;28;20976;-80
2024/02/20 04:35:52;;;;;;;3.55;2.10;;;8.10;99.90;;;;;;5059517;28;20380;-80
2024/02/20 04:38:17;;;;;;;2.70;2.30;;;7.70;99.90;;;;;;5059990;28;20384;-79
2024/02/20 04:40:43;;;;;;;5.83;2.67;;;8.00;99.90;;;;;;5069522;28;20393;-79
2024/02/20 04:43:08;;;;;;;3.83;2.35;;;7.70;99.90;;;;;;5056332;28;20397;-79
2024/02/20 04:45:34;;;;;;;3.38;2.50;;;7.80;99.90;;;;;;5058075;28;20385;-80
2024/02/20 04:47:59;;;;;;;3.00;2.40;;;7.90;99.90;;;;;;5042051;28;20407;-79
2024/02/20 04:50:25;;;;;;;4.43;2.57;;;7.80;99.90;;;;;;5057231;28;20393;-79
2024/02/20 04:52:51;;;;;;;6.10;2.33;;;7.80;99.90;;;;;;5056757;28;20413;-80
2024/02/20 04:55:17;;;;;;;3.53;2.60;;;7.30;99.90;;;;;;5041244;28;20396;-80
2024/02/20 04:57:43;;;;;;;4.45;2.33;;;7.40;99.90;;;;;;5077708;28;20383;-79
2024/02/20 05:00:10;;;;;;;4.50;2.40;;;7.70;99.90;;;;;;5044915;28;20389;-80
2024/02/20 05:02:37;;;;;;;4.38;2.40;;;7.70;99.90;;;;;;5060927;28;20386;-79
2024/02/20 05:05:03;;;;;;;4.28;2.80;;;7.70;99.90;;;;;;5023297;28;20399;-79
2024/02/20 05:07:28;;;;;;;3.95;2.40;;;7.60;99.90;;;;;;5018933;28;20452;-79
2024/02/20 05:09:54;;;;;;;3.50;2.23;;;7.70;99.90;;;;;;5019410;28;20492;-79
2024/02/20 05:12:19;;;;;;;4.27;2.50;;;7.40;99.90;;;;;;5044685;28;20925;-79
2024/02/20 05:14:48;;;;;;;4.78;2.33;;;7.60;99.90;;;;;;5059074;28;20864;-79
2024/02/20 05:17:14;;;;;;;3.25;2.50;;;7.20;99.90;;;;;;5061787;28;20386;-78
2024/02/20 05:19:40;;;;;;;3.70;2.33;;;7.60;99.90;;;;;;5058681;28;20756;-78
2024/02/20 05:22:06;;;;;;;4.35;2.55;;;7.60;99.90;;;;;;5043326;28;20402;-79
2024/02/20 05:24:34;;;;;;;5.70;2.90;;;7.60;99.90;;;;;;5046112;28;20399;-78
2024/02/20 05:27:02;;;;;;;5.68;2.80;;;7.10;99.90;;;;;;5053755;28;20487;-78
2024/02/20 05:29:29;;;;;;;5.32;2.40;;;7.50;99.90;;;;;;5037167;28;20395;-79
2024/02/20 05:31:57;;;;;;;4.90;2.80;;;7.60;99.90;;;;;;5106483;22;20424;-82
2024/02/20 05:34:22;;;;;;;4.10;3.20;;;7.50;99.90;;;;;;5090505;28;20439;-83
2024/02/20 05:36:48;;;;;;;5.07;2.70;;;7.40;99.90;;;;;;5091545;28;20380;-83
2024/02/20 05:39:13;;;;;;;5.57;2.70;;;7.40;99.90;;;;;;5073284;28;20397;-83
2024/02/20 05:41:39;;;;;;;10.07;3.85;;;7.30;99.90;;;;;;5057603;28;20407;-83
2024/02/20 05:44:05;;;;;;;6.73;3.57;;;8.10;99.90;;;;;;5050235;28;20383;-83
2024/02/20 05:46:32;;;;;;;9.63;4.00;;;7.40;99.90;;;;;;5072407;28;20397;-83
2024/02/20 05:48:58;;;;;;;6.07;3.30;;;7.30;99.90;;;;;;5072012;28;20399;-82
2024/02/20 05:51:25;;;;;;;4.60;3.70;;;7.40;99.90;;;;;;5068958;28;20498;-83
2024/02/20 05:53:51;;;;;;;8.23;3.40;;;7.20;99.90;;;;;;5070190;28;20417;-83
2024/02/20 05:56:18;;;;;;;6.28;3.30;;;7.00;99.90;;;;;;5067045;28;20399;-82
2024/02/20 05:58:44;;;;;;;7.35;3.30;;;7.20;99.90;;;;;;5086338;28;20380;-82
2024/02/20 06:01:09;;;;;;;5.80;2.40;;;7.20;99.90;;;;;;5092051;28;20412;-83
2024/02/20 06:03:36;;;;;;;4.95;2.70;;;7.10;99.90;;;;;;5086758;28;20421;-83
2024/02/20 06:06:05;;;;;;;4.30;3.10;;;7.20;99.90;;;;;;5069508;28;20413;-83
2024/02/20 06:08:30;;;;;;;4.35;3.20;;;7.20;99.90;;;;;;5067238;28;20389;-83
2024/02/20 06:10:56;;;;;;;4.30;3.00;;;7.30;99.90;;;;;;5069900;28;20478;-83
2024/02/20 06:13:22;;;;;;;6.30;3.30;;;6.90;99.90;;;;;;5069988;28;20405;-83
2024/02/20 06:15:48;;;;;;;4.03;2.60;;;7.40;99.90;;;;;;5077481;28;20398;-84
2024/02/20 06:18:13;;;;;;;4.10;3.00;;;6.80;99.90;;;;;;5086931;28;20430;-83
2024/02/20 06:20:41;;;;;;;3.70;2.60;;;6.70;99.90;;;;;;5082082;28;20397;-83
2024/02/20 06:23:07;;;;;;;6.30;3.35;;;7.20;99.90;;;;;;5067793;28;20761;-83
2024/02/20 06:25:32;;;;;;;5.75;3.10;;;7.20;99.90;;;;;;5067151;28;20405;-83
2024/02/20 06:27:58;;;;;;;3.63;3.00;;;7.10;99.90;;;;;;5065912;28;20395;-83
2024/02/20 06:30:24;;;;;;;4.75;2.50;;;6.90;99.90;;;;;;5065958;28;20405;-83
2024/02/20 06:32:52;;;;;;;4.95;2.97;;;7.20;99.90;;;;;;5065696;28;20420;-83
2024/02/20 06:35:17;;;;;;;6.17;3.50;;;7.00;99.90;;;;;;5069484;28;20373;-83
2024/02/20 06:37:43;;;;;;;5.22;3.15;;;7.20;99.90;;;;;;5077061;28;20416;-83
2024/02/20 06:40:09;;;;;;;6.03;2.80;;;7.10;99.90;;;;;;5075853;28;20404;-83
2024/02/20 06:42:34;;;;;;;5.30;2.60;;;7.30;99.90;;;;;;5076357;28;20385;-83
2024/02/20 06:45:00;;;;;;;5.10;2.60;;;8.80;99.90;;;;;;5055364;28;20407;-83
2024/02/20 06:47:25;;;;;;;6.47;2.60;;;7.30;99.90;;;;;;5075846;28;20395;-83
2024/02/20 06:49:51;;;;;;;5.40;2.72;;;7.20;99.90;;;;;;5075323;28;20398;-84
2024/02/20 06:52:16;;;;;;;3.10;2.70;;;7.20;99.90;;;;;;5067038;28;20460;-83
2024/02/20 06:54:42;;;;;;;3.95;2.58;;;7.00;99.90;;;;;;5066380;28;20377;-83
2024/02/20 06:57:09;;;;;;;5.80;3.00;;;7.10;99.90;;;;;;5066156;28;20439;-83
2024/02/20 06:59:34;;;;;;;5.35;3.08;;;9.00;99.90;;;;;;5073098;28;20391;-83
2024/02/20 07:02:00;;;;;;;4.87;2.90;;;7.30;99.90;;;;;;5074231;28;20405;-83
2024/02/20 07:04:25;;;;;;;5.47;3.07;;;7.50;99.90;;;;;;5068057;28;20476;-83
2024/02/20 07:06:51;;;;;;;4.00;2.45;;;7.40;99.90;;;;;;5068719;28;20389;-82
2024/02/20 07:09:17;;;;;;;4.03;2.55;;;8.00;99.90;;;;;;5067232;28;20381;-82
2024/02/20 07:11:46;;;;;;;4.60;2.22;;;7.50;99.90;;;;;;5070417;28;20769;-82
2024/02/20 07:14:12;;;;;;;6.00;2.50;;;7.60;99.90;;;;;;5074709;28;20451;-82
2024/02/20 07:16:38;;;;;;;5.70;2.88;;;7.40;99.90;;;;;;5089824;28;20433;-82
2024/02/20 07:19:03;;;;;;;4.95;2.35;;;7.60;99.90;;;;;;5070925;28;20401;-83
2024/02/20 07:21:29;;;;;;;4.10;2.80;;;7.70;99.90;;;;;;5065935;28;20418;-84
2024/02/20 07:23:54;;;;;;;4.90;2.72;;;7.50;99.90;;;;;;5068274;28;20385;-84
2024/02/20 07:26:26;;;;;;;3.33;2.60;;;7.60;99.90;;;;;;5066676;28;20396;-82
2024/02/20 07:28:51;;;;;;;6.22;2.70;;;7.60;99.90;;;;;;5066074;28;20381;-84
2024/02/20 07:31:25;;;;;;;7.82;3.10;;;8.30;99.90;;;;;;5068789;28;20408;-84
2024/02/20 07:33:50;;;;;;;7.88;2.90;;;7.10;99.90;;;;;;5052928;28;20466;-82
2024/02/20 07:36:16;;;;;;;6.30;2.63;;;7.20;99.90;;;;;;5048583;28;20387;-83
2024/02/20 07:38:43;;;;;;;3.73;2.73;;;7.80;99.90;;;;;;5048857;28;20398;-83
2024/02/20 07:41:08;;;;;;;4.33;2.40;;;8.10;99.90;;;;;;5052512;28;20410;-83
2024/02/20 07:43:35;;;;;;;3.40;2.47;;;7.50;99.90;;;;;;5069155;28;20393;-84
2024/02/20 07:46:01;;;;;;;4.00;2.50;;;8.00;99.90;;;;;;5068522;28;20381;-82
2024/02/20 07:48:26;;;;;;;4.40;2.50;;;7.80;99.90;;;;;;5069275;28;20388;-82
2024/02/20 07:50:52;;;;;;;4.88;2.30;;;7.90;99.90;;;;;;5079090;28;20398;-84
2024/02/20 07:53:17;;;;;;;4.57;2.85;;;8.00;99.90;;;;;;5088898;28;20435;-84
2024/02/20 07:55:43;;;;;;;4.20;2.47;;;7.80;99.90;;;;;;5087638;28;20384;-85
2024/02/20 07:58:08;;;;;;;9.30;2.90;;;7.90;99.90;;;;;;5087003;28;20413;-84
2024/02/20 08:00:35;;;;;;;5.40;2.80;;;7.60;99.90;;;;;;5087430;28;20394;-82
2024/02/20 08:03:00;;;;;;;4.57;3.10;;;7.40;99.90;;;;;;5095615;28;20387;-82
2024/02/20 08:05:27;;;;;;;6.40;3.10;;;7.90;99.90;;;;;;5080433;28;20401;-82
2024/02/20 08:07:53;;;;;;;3.88;2.55;;;8.20;99.90;;;;;;5043924;28;20441;-83
2024/02/20 08:10:19;;;;;;;4.57;2.70;;;8.10;99.90;;;;;;5077468;28;20395;-84
2024/02/20 08:12:45;;;;;;;5.97;2.90;;;8.10;99.90;;;;;;5092220;28;20399;-82
2024/02/20 08:15:10;;;;;;;5.60;2.97;;;7.40;99.90;;;;;;5092648;28;20383;-83
2024/02/20 08:17:36;;;;;;;4.70;2.83;;;8.10;99.90;;;;;;5080447;28;20491;-84
2024/02/20 08:20:04;;;;;;;6.32;3.25;;;8.30;99.90;;;;;;5092517;28;20724;-85
2024/02/20 08:22:29;;;;;;;4.80;2.90;;;8.20;99.90;;;;;;5094262;28;20422;-84
2024/02/20 08:24:56;;;;;;;4.33;2.90;;;8.40;99.90;;;;;;5071669;28;20401;-82
2024/02/20 08:27:22;;;;;;;5.60;3.20;;;8.00;99.90;;;;;;5069580;28;20389;-83
2024/02/20 08:29:48;;;;;;;5.93;3.03;;;8.30;99.90;;;;;;5069600;28;20373;-82
2024/02/20 08:32:14;;;;;;;3.40;2.30;;;8.50;99.90;;;;;;5069449;28;20400;-83
2024/02/20 08:34:40;;;;;;;4.10;2.53;;;8.50;99.90;;;;;;5069823;28;20390;-82
2024/02/20 08:37:05;;;;;;;4.97;2.70;;;8.10;99.90;;;;;;5078918;28;20911;-83
2024/02/20 08:39:31;;;;;;;5.75;3.10;;;8.60;99.90;;;;;;5089486;28;20432;-83
2024/02/20 08:41:56;;;;;;;6.50;3.00;;;8.40;99.90;;;;;;5069398;28;20441;-83
2024/02/20 08:44:24;;;;;;;5.30;2.70;;;9.20;99.90;;;;;;5068139;28;20399;-83
2024/02/20 08:46:49;;;;;;;5.27;2.53;;;8.80;99.90;;;;;;5075789;28;20399;-85
2024/02/20 08:49:15;;;;;;;5.40;3.20;;;8.80;99.90;;;;;;5086791;28;20392;-84
2024/02/20 08:51:42;;;;;;;5.80;3.20;;;8.70;99.90;;;;;;5087166;28;20391;-85
2024/02/20 08:54:08;;;;;;;7.57;3.00;;;8.80;99.90;;;;;;5092932;28;20403;-84
2024/02/20 08:56:34;;;;;;;6.82;2.78;;;8.90;99.90;;;;;;5093972;28;20394;-84
2024/02/20 08:58:59;;;;;;;3.90;2.50;;;8.80;99.90;;;;;;5083123;28;20416;-84
2024/02/20 09:01:25;;;;;;;5.73;2.80;;;9.00;99.90;;;;;;5058630;28;20467;-84
2024/02/20 09:04:00;;;;;;;5.47;2.70;;;8.40;99.90;;;;;;5068808;28;20405;-84
2024/02/20 09:06:26;;;;;;;4.68;2.60;;;8.70;99.90;;;;;;5068144;28;20389;-84
2024/02/20 09:08:51;;;;;;;3.85;2.60;;;8.40;99.90;;;;;;5068514;28;20397;-84
2024/02/20 09:11:17;;;;;;;4.93;2.40;;;8.70;99.90;;;;;;5066834;28;20393;-83
2024/02/20 09:13:42;;;;;;;6.13;2.47;;;7.80;99.90;;;;;;5067605;28;20416;-82
2024/02/20 09:16:08;;;;;;;5.07;2.30;;;8.30;99.90;;;;;;5065806;28;20766;-83
2024/02/20 09:18:37;;;;;;;4.60;2.60;;;8.90;99.90;;;;;;5081097;28;20384;-83
2024/02/20 09:21:04;;;;;;;4.18;2.40;;;8.80;99.90;;;;;;5074242;28;20393;-83
2024/02/20 09:23:32;;;;;;;4.53;2.22;;;;;;;;;;5072956;28;20387;-83
2024/02/20 09:25:58;;;;;;;6.97;2.72;;;9.10;99.90;;;;;;5066231;28;20413;-84
2024/02/20 09:28:23;;;;;;;6.40;2.27;;;8.80;99.90;;;;;;5065794;28;21037;-82
2024/02/20 09:30:49;;;;;;;7.17;2.10;;;9.00;99.90;;;;;;5066722;28;20396;-83
2024/02/20 09:33:18;;;;;;;6.20;2.40;;;9.10;99.90;;;;;;5059669;28;20518;-84
2024/02/20 09:35:43;;;;;;;5.28;1.90;;;9.10;99.90;;;;;;5067275;28;20389;-84
2024/02/20 09:38:09;;;;;;;3.95;2.10;;;8.10;99.90;;;;;;5066556;28;20503;-84
2024/02/20 09:40:34;;;;;;;7.33;2.27;;;9.00;99.90;;;;;;5062572;28;20417;-84
2024/02/20 09:43:01;;;;;;;5.60;2.03;;;9.10;99.90;;;;;;5065591;28;20408;-84
2024/02/20 09:45:28;;;;;;;6.45;1.88;;;8.70;99.90;;;;;;5075232;28;20421;-84
2024/02/20 09:47:54;;;;;;;8.98;2.08;;;9.00;99.90;;;;;;5085209;28;20510;-83
2024/02/20 09:50:20;;;;;;;6.70;2.42;;;8.90;99.90;;;;;;5061497;28;20410;-84
2024/02/20 09:52:54;;;;;;;7.38;2.00;;;8.50;99.90;;;;;;5063861;28;20477;-84
2024/02/20 09:55:21;;;;;;;6.07;1.70;;;9.50;99.90;;;;;;5055716;28;20400;-85
2024/02/20 09:57:50;;;;;;;4.38;2.17;;;9.60;99.90;;;;;;5065272;28;20381;-84
2024/02/20 10:00:20;;;;;;;5.95;2.15;;;9.70;99.90;;;;;;5064866;28;20468;-84
2024/02/20 10:02:46;;;;;;;4.78;2.13;;;9.70;99.90;;;;;;5065042;28;21000;-84
2024/02/20 10:05:16;;;;;;;7.70;2.00;;;9.80;99.90;;;;;;5064576;28;20401;-84
2024/02/20 10:07:45;;;;;;;7.85;2.00;;;9.20;99.90;;;;;;5066718;28;20393;-84
2024/02/20 10:10:12;;;;;;;5.03;2.13;;;9.90;99.90;;;;;;5067385;28;20512;-84
2024/02/20 10:12:39;;;;;;;4.82;1.90;;;9.90;99.90;;;;;;5065575;28;20409;-84
2024/02/20 10:15:09;;;;;;;7.07;2.45;;;9.90;99.90;;;;;;5066897;28;20770;-84
2024/02/20 10:17:35;;;;;;;5.90;2.40;;;10.10;99.90;;;;;;5065925;28;20415;-84
2024/02/20 10:20:10;;;;;;;6.68;2.00;;;11.80;99.90;;;;;;5066820;28;20400;-84
2024/02/20 10:22:38;;;;;;;7.03;2.13;;;10.40;99.90;;;;;;5066276;28;20378;-84
2024/02/20 10:25:12;;;;;;;5.55;2.30;;;9.30;99.90;;;;;;5065417;28;20401;-84
2024/02/20 10:27:38;;;;;;;6.00;2.17;;;10.50;99.90;;;;;;5065778;28;20492;-84
2024/02/20 10:30:05;;;;;;;10.55;2.63;;;10.40;99.90;;;;;;5065656;28;20952;-84
2024/02/20 10:32:36;;;;;;;3.47;1.83;;;10.30;99.90;;;;;;5065144;28;20464;-84
2024/02/20 10:35:09;;;;;;;7.40;2.45;;;10.60;99.90;;;;;;5066375;28;20443;-83
2024/02/20 10:37:35;;;;;;;9.50;2.88;;;10.40;99.90;;;;;;5066167;28;20378;-83
2024/02/20 10:40:14;;;;;;;6.65;3.20;;;10.20;99.90;;;;;;5066195;28;20902;-84
2024/02/20 10:42:40;;;;;;;8.40;2.30;;;10.40;99.90;;;;;;5065473;28;20446;-83
2024/02/20 10:45:10;;;;;;;7.28;2.20;;;9.90;99.90;;;;;;5066949;28;20443;-85
2024/02/20 10:47:46;;;;;;;6.78;2.65;;;10.60;99.90;;;;;;5066150;28;20404;-84
2024/02/20 10:50:13;;;;;;;8.70;2.30;;;12.80;99.90;;;;;;5065200;28;20443;-84
2024/02/20 10:52:40;;;;;;;6.90;2.13;;;10.30;99.90;;;;;;5067402;28;20404;-83
2024/02/20 10:55:08;;;;;;;6.85;2.08;;;9.90;99.90;;;;;;5065574;28;20408;-83
2024/02/20 10:57:35;;;;;;;6.47;2.10;;;10.90;99.90;;;;;;5063752;28;20469;-81
2024/02/20 11:00:11;;;;;;;6.22;2.40;;;10.20;99.90;;;;;;5071808;28;20377;-83
2024/02/20 11:02:48;;;;;;;8.50;2.28;;;10.80;99.90;;;;;;5065890;28;20390;-84
2024/02/20 11:05:14;;;;;;;5.55;2.10;;;10.80;99.90;;;;;;5064909;28;20401;-84
2024/02/20 11:07:40;;;;;;;6.45;2.47;;;10.60;99.90;;;;;;5063978;28;20393;-86
2024/02/20 11:10:17;;;;;;;8.52;2.22;;;10.80;99.90;;;;;;5063660;28;20444;-85
2024/02/20 11:12:44;;;;;;;6.43;2.40;;;10.90;99.90;;;;;;5065147;28;20772;-84
2024/02/20 11:15:13;;;;;;;6.93;2.53;;;10.70;99.90;;;;;;5067445;28;20449;-82
2024/02/20 11:17:40;;;;;;;7.63;2.50;;;10.70;99.90;;;;;;5064189;28;20443;-85
2024/02/20 11:20:08;;;;;;;5.78;2.20;;;11.00;99.90;;;;;;5065725;28;20600;-86
2024/02/20 11:22:34;;;;;;;4.80;1.83;;;11.00;99.90;;;;;;5065943;28;20389;-84
2024/02/20 11:25:04;;;;;;;7.30;2.03;;;11.10;99.90;;;;;;5064545;28;20891;-83
2024/02/20 11:27:39;;;;;;;8.13;2.20;;;11.00;99.90;;;;;;5065715;28;20412;-82
2024/02/20 11:30:10;;;;;;;7.95;2.10;;;11.40;99.90;;;;;;5064790;28;20381;-82
2024/02/20 11:32:36;;;;;;;7.13;2.40;;;11.50;99.90;;;;;;5082815;22;20520;-80
2024/02/20 11:35:01;;;;;;;5.33;2.40;;;11.30;99.90;;;;;;5059221;28;20407;-80
2024/02/20 11:37:27;;;;;;;6.00;2.40;;;11.10;99.90;;;;;;5041833;28;20377;-80
2024/02/20 11:39:52;;;;;;;5.10;1.90;;;11.10;99.90;;;;;;5060370;28;20393;-79
2024/02/20 11:42:19;;;;;;;5.25;2.00;;;11.40;99.90;;;;;;5060436;28;20377;-81
2024/02/20 11:44:44;;;;;;;7.07;2.10;;;11.50;99.90;;;;;;5042402;28;20388;-80
2024/02/20 11:47:15;;;;;;;5.07;2.03;;;12.50;99.90;;;;;;5059058;28;20381;-80
2024/02/20 11:49:40;;;;;;;7.25;2.30;;;11.40;99.90;;;;;;5043444;28;20400;-79
2024/02/20 11:52:09;;;;;;;6.40;2.42;;;10.90;99.90;;;;;;5059317;28;20452;-80
2024/02/20 11:54:34;;;;;;;5.38;2.30;;;10.40;99.90;;;;;;5040538;28;20916;-80
2024/02/20 11:57:01;;;;;;;8.23;2.67;;;10.40;99.90;;;;;;5040610;28;20385;-80
2024/02/20 11:59:27;;;;;;;10.50;2.60;;;10.90;99.90;;;;;;5058292;28;21010;-79
2024/02/20 12:01:52;;;;;;;6.70;2.10;;;10.90;99.90;;;;;;5058908;28;20374;-79
2024/02/20 12:04:28;;;;;;;5.33;1.90;;;10.80;99.90;;;;;;5043903;28;20472;-79
2024/02/20 12:06:53;;;;;;;7.88;1.90;;;10.70;99.90;;;;;;5062510;28;20434;-79
2024/02/20 12:09:19;;;;;;;4.40;2.00;;;10.70;99.90;;;;;;5063059;28;20952;-79
2024/02/20 12:11:49;;;;;;;6.90;1.87;;;10.80;99.90;;;;;;5060821;28;20385;-79
2024/02/20 12:14:18;;;;;;;4.95;1.92;;;11.10;99.90;;;;;;5042382;28;20428;-79
2024/02/20 12:16:44;;;;;;;7.75;2.70;;;11.00;99.90;;;;;;5043597;28;20491;-79
2024/02/20 12:19:10;;;;;;;6.28;2.38;;;10.40;99.90;;;;;;5065179;28;20401;-80
2024/02/20 12:21:37;;;;;;;7.10;2.80;;;10.90;99.90;;;;;;5046324;28;20389;-80
2024/02/20 12:24:07;;;;;;;8.07;2.65;;;11.00;99.90;;;;;;5046949;28;20435;-79
2024/02/20 12:26:32;;;;;;;8.65;2.85;;;11.10;99.90;;;;;;5046550;28;20472;-79
2024/02/20 12:28:58;;;;;;;6.27;2.20;;;11.20;99.90;;;;;;5064158;28;20385;-79
2024/02/20 12:31:26;;;;;;;4.63;2.28;;;11.20;99.90;;;;;;5063648;28;20453;-79
2024/02/20 12:33:52;;;;;;;7.60;2.10;;;10.50;99.90;;;;;;5044222;28;20492;-79
2024/02/20 12:36:18;;;;;;;5.90;2.28;;;10.80;99.90;;;;;;5064505;28;20416;-79
2024/02/20 12:38:44;;;;;;;6.25;2.20;;;10.70;99.90;;;;;;5047014;28;20420;-81
2024/02/20 12:41:09;;;;;;;5.23;2.33;;;11.10;99.90;;;;;;5042855;28;20706;-80
2024/02/20 12:43:35;;;;;;;4.37;1.83;;;11.20;99.90;;;;;;5034597;28;20405;-77
2024/02/20 12:46:01;;;;;;;4.63;1.75;;;11.40;99.90;;;;;;5033916;28;20386;-77
2024/02/20 12:48:27;;;;;;;6.68;2.30;;;11.60;99.90;;;;;;5047404;28;20402;-76
2024/02/20 12:50:53;;;;;;;6.67;2.10;;;11.50;99.90;;;;;;5035803;28;20386;-77